Time;durP1;ratioP1;P1;durP2;ratioP2;P2;SDS_P1;SDS_P2;PMS_P1;PMS_P2;Temp;Humidity;BMP_temperature;BMP_pressure;BME280_temperature;BME280_humidity;BME280_pressure;Samples;Min_cycle;Max_cycle;Signal;HPM_P1;HPM_P2
2023/01/26 00:02:14;;;;;;;;;83.33;64.33;;;;;1.88;100.00;100376.88;6318192;20;3634702;-53
2023/01/26 00:04:44;;;;;;;;;91.67;67.33;;;;;1.79;100.00;100378.78;6315253;20;3649352;-57
2023/01/26 00:07:14;;;;;;;;;95.67;77.33;;;;;1.83;100.00;100373.44;6319295;20;3679451;-55
2023/01/26 00:09:43;;;;;;;;;92.33;69.00;;;;;1.63;100.00;100367.53;6282594;20;3638906;-55
2023/01/26 00:12:13;;;;;;;;;88.00;67.33;;;;;1.71;100.00;100363.00;6313746;20;3632615;-57
2023/01/26 00:14:48;;;;;;;;;81.67;61.00;;;;;1.71;100.00;100366.56;6312123;20;3655522;-55
2023/01/26 00:17:24;;;;;;;;;85.67;65.67;;;;;1.71;100.00;100360.34;6315449;20;3617059;-55
2023/01/26 00:19:57;;;;;;;;;91.33;67.67;;;;;1.75;100.00;100362.94;6316789;20;3662916;-54
2023/01/26 00:22:27;;;;;;;;;93.00;73.00;;;;;1.88;100.00;100368.94;6315408;20;3663805;-56
2023/01/26 00:24:57;;;;;;;;;230.25;176.25;;;;;1.76;100.00;100361.16;6316999;20;4480435;-55
2023/01/26 00:27:24;;;;;;;;;134.50;112.00;;;;;2.05;100.00;100366.00;6312732;20;1940921;-54
2023/01/26 00:29:55;;;;;;;;;127.75;100.75;;;;;1.88;100.00;100360.13;6282094;20;3720199;-54
2023/01/26 00:32:25;;;;;;;;;127.25;104.25;;;;;1.86;100.00;100360.13;6283329;20;4490886;-56
2023/01/26 00:34:55;;;;;;;;;101.67;80.33;;;;;1.89;100.00;100361.88;6282856;20;3685786;-56
2023/01/26 00:37:25;;;;;;;;;91.33;70.33;;;;;1.82;100.00;100347.88;6282833;20;3653487;-54
2023/01/26 00:39:54;;;;;;;;;91.00;68.00;;;;;1.78;100.00;100354.09;6315227;20;3661843;-54
2023/01/26 00:42:24;;;;;;;;;87.33;65.67;;;;;1.88;100.00;100345.09;6315476;20;3637813;-57
2023/01/26 00:44:54;;;;;;;;;77.67;60.67;;;;;1.93;100.00;100340.63;6313731;20;3633006;-56
2023/01/26 00:47:23;;;;;;;;;80.67;58.33;;;;;1.91;100.00;100342.41;6315188;20;3658077;-55
2023/01/26 00:49:53;;;;;;;;;78.67;59.00;;;;;1.93;100.00;100337.97;6312038;20;3640003;-57
2023/01/26 00:52:22;;;;;;;;;79.00;61.67;;;;;2.09;100.00;100340.38;6317310;20;2878499;-51
2023/01/26 00:54:52;;;;;;;;;76.00;58.00;;;;;1.91;100.00;100339.75;6313162;20;3637800;-54
2023/01/26 00:57:21;;;;;;;;;72.33;55.00;;;;;1.92;100.00;100337.97;6314034;20;2887803;-54
2023/01/26 00:59:51;;;;;;;;;78.00;60.33;;;;;1.87;100.00;100335.44;6315855;20;2870201;-56
2023/01/26 01:02:20;;;;;;;;;78.00;58.67;;;;;1.96;100.00;100340.56;6317467;20;3629445;-53
2023/01/26 01:04:50;;;;;;;;;73.67;56.67;;;;;1.87;100.00;100335.44;6316164;20;2881090;-54
2023/01/26 01:07:19;;;;;;;;;69.50;55.50;;;;;1.83;100.00;100339.00;6314480;20;2872228;-56
2023/01/26 01:09:48;;;;;;;;;75.67;56.00;;;;;2.01;100.00;100332.56;6283509;20;3635833;-54
2023/01/26 01:12:18;;;;;;;;;81.67;61.67;;;;;2.01;100.00;100326.38;6313904;20;3650262;-56
2023/01/26 01:14:47;;;;;;;;;80.67;58.67;;;;;1.96;100.00;100327.31;6315752;20;3645036;-56
2023/01/26 01:17:17;;;;;;;;;81.33;59.67;;;;;1.74;100.00;100329.44;6312803;20;3665909;-57
2023/01/26 01:19:46;;;;;;;;;81.00;62.67;;;;;1.68;100.00;100318.06;6311644;20;3631493;-55
2023/01/26 01:22:17;;;;;;;;;81.67;61.67;;;;;1.98;100.00;100322.88;6313968;20;3661791;-55
2023/01/26 01:24:45;;;;;;;;;72.50;56.50;;;;;1.95;100.00;100319.41;6316937;20;2876334;-55
2023/01/26 01:27:15;;;;;;;;;79.00;59.33;;;;;1.81;100.00;100322.25;6282710;20;3639914;-55
2023/01/26 01:29:44;;;;;;;;;82.00;61.00;;;;;1.83;100.00;100317.84;6314661;20;3653402;-56
2023/01/26 01:32:14;;;;;;;;;65.67;48.67;;;;;1.85;100.00;100310.75;6316405;20;2885781;-55
2023/01/26 01:34:43;;;;;;;;;79.00;59.50;;;;;1.85;100.00;100321.34;6312308;20;2876393;-57
2023/01/26 01:37:13;;;;;;;;;73.00;57.33;;;;;1.59;100.00;100320.84;6282673;20;3622227;-56
2023/01/26 01:39:43;;;;;;;;;79.00;59.33;;;;;1.61;100.00;100308.47;6312768;20;2877541;-55
2023/01/26 01:42:12;;;;;;;;;74.33;58.33;;;;;1.50;100.00;100304.22;6315542;20;3625672;-56
2023/01/26 01:44:44;;;;;;;;;78.00;57.67;;;;;1.61;100.00;100313.78;6311461;20;2884783;-54
2023/01/26 01:47:27;;;;;;;;;79.33;57.67;;;;;1.68;100.00;100312.75;6313567;20;3630507;-55
2023/01/26 01:49:57;;;;;;;;;71.67;54.33;;;;;1.77;100.00;100306.47;6311021;20;2891068;-58
2023/01/26 01:52:30;;;;;;;;;70.67;56.67;;;;;1.70;100.00;100305.69;6313410;20;2883698;-55
2023/01/26 01:55:08;;;;;;;;;72.00;56.67;;;;;1.62;100.00;100297.00;6312690;20;2872293;-56
2023/01/26 01:57:55;;;;;;;;;69.67;56.00;;;;;1.51;100.00;100279.50;6311425;20;3619003;-56
2023/01/26 02:00:24;;;;;;;;;72.67;55.00;;;;;1.47;100.00;100296.31;6310318;20;2878547;-55
2023/01/26 02:03:33;;;;;;;;;69.33;51.33;;;;;1.63;100.00;100288.13;6310935;20;3625419;-55
2023/01/26 02:06:15;;;;;;;;;74.00;54.33;;;;;1.69;100.00;100283.63;6312008;20;3644078;-55
2023/01/26 02:08:52;;;;;;;;;69.00;54.33;;;;;1.72;100.00;100282.72;6310983;20;2877481;-58
2023/01/26 02:11:43;;;;;;;;;73.33;56.00;;;;;1.64;100.00;100284.63;6312039;20;2891059;-56
2023/01/26 02:14:15;;;;;;;;;78.00;56.33;;;;;1.63;100.00;100286.34;6312124;20;2891190;-55
2023/01/26 02:16:44;;;;;;;;;74.33;56.33;;;;;1.73;100.00;100280.03;6309619;20;3642015;-52
2023/01/26 02:19:42;;;;;;;;;71.00;55.50;;;;;1.76;100.00;100263.22;6313541;20;2877145;-56
2023/01/26 02:22:53;;;;;;;;;69.33;56.00;;;;;1.92;100.00;100263.84;6280880;20;3633565;-53
2023/01/26 02:25:33;;;;;;;;;66.00;55.00;;;;;1.90;100.00;100269.19;6312631;20;2874258;-56
2023/01/26 02:28:02;;;;;;;;;65.00;52.00;;;;;1.91;100.00;100262.97;6283332;20;2856595;-53
2023/01/26 02:30:32;;;;;;;;;69.50;51.00;;;;;2.04;100.00;100257.47;6276385;20;2876436;-58
2023/01/26 02:33:01;;;;;;;;;71.33;50.00;;;;;1.95;100.00;100247.94;6279938;20;3646085;-55
2023/01/26 02:35:30;;;;;;;;;60.50;50.50;;;;;1.80;100.00;100254.34;6314168;20;2858717;-55
2023/01/26 02:37:59;;;;;;;;;65.50;50.50;;;;;1.85;100.00;100251.63;6282934;20;2847177;-56
2023/01/26 02:41:06;;;;;;;;;66.33;49.00;;;;;1.84;100.00;100244.56;6279658;20;2876459;-56
2023/01/26 02:43:36;;;;;;;;;65.00;51.00;;;;;1.95;100.00;100240.84;6310618;20;2873267;-55
2023/01/26 02:46:04;;;;;;;;;61.00;47.50;;;;;1.85;100.00;100241.03;6281808;20;2866971;-56
2023/01/26 02:51:20;;;;;;;;;56.00;46.00;;;;;1.80;100.00;100233.16;6280766;20;2857724;-55
2023/01/26 02:53:49;;;;;;;;;63.50;49.00;;;;;1.77;100.00;100220.00;6281977;20;2868000;-57
2023/01/26 02:56:17;;;;;;;;;55.00;44.50;;;;;1.78;100.00;100224.38;6277875;20;2865907;-56
2023/01/26 02:58:46;;;;;;;;;62.50;46.00;;;;;1.93;100.00;100224.09;6278075;20;2854449;-55
2023/01/26 03:01:14;;;;;;;;;60.00;48.00;;;;;1.68;100.00;100217.47;6275740;20;2493027;-56
2023/01/26 03:03:43;;;;;;;;;62.00;45.50;;;;;1.71;100.00;100213.03;6275712;20;2498698;-57
2023/01/26 03:06:14;;;;;;;;;62.33;45.67;;;;;1.84;100.00;100213.66;6286746;20;2870058;-56
2023/01/26 03:08:43;;;;;;;;;60.50;45.50;;;;;1.87;100.00;100213.63;6316725;20;2868050;-57
2023/01/26 03:11:11;;;;;;;;;61.50;46.00;;;;;1.88;100.00;100204.78;6283508;20;2866950;-54
2023/01/26 03:13:40;;;;;;;;;52.00;42.50;;;;;1.75;100.00;100203.25;6281010;20;2881615;-57
2023/01/26 03:16:10;;;;;;;;;58.50;45.50;;;;;1.68;100.00;100204.25;6276380;20;2491964;-56
2023/01/26 03:27:25;;;;;;;;;51.67;41.00;;;;;1.77;100.00;100180.28;6278267;20;2865931;-56
2023/01/26 03:29:57;;;;;;;;;59.33;42.00;;;;;1.77;100.00;100180.28;6306942;20;3614985;-55
2023/01/26 03:32:25;;;;;;;;;54.00;39.50;;;;;1.69;100.00;100182.19;6313670;20;2873254;-54
2023/01/26 03:34:55;;;;;;;;;57.33;43.67;;;;;1.80;100.00;100179.34;6285876;20;3621119;-55
2023/01/26 03:37:24;;;;;;;;;62.33;46.00;;;;;1.93;100.00;100175.59;6316649;20;3626344;-56
2023/01/26 03:56:39;;;;;;;;;62.33;43.67;;;;;1.53;100.00;100148.06;6282319;20;2889954;-54
2023/01/26 03:59:08;;;;;;;;;58.50;45.50;;;;;1.57;100.00;100156.78;6314193;20;2869026;-52
2023/01/26 04:10:09;;;;;;;;;63.00;49.00;;;;;1.34;100.00;100146.59;6317423;20;2865908;-54
2023/01/26 04:12:39;;;;;;;;;65.00;52.00;;;;;1.47;100.00;100144.63;6316780;20;2865278;-55
2023/01/26 04:23:30;;;;;;;;;65.00;50.00;;;;;1.45;100.00;100134.09;6311842;20;2499228;-54
2023/01/26 04:25:58;;;;;;;;;64.00;47.00;;;;;1.49;100.00;100133.09;6283226;20;2873253;-54
2023/01/26 04:28:27;;;;;;;;;57.50;46.00;;;;;1.49;100.00;100133.09;6284433;20;2849326;-52
2023/01/26 04:30:55;;;;;;;;;66.50;51.00;;;;;1.43;100.00;100138.53;6282448;20;2500737;-52
2023/01/26 04:33:24;;;;;;;;;69.00;51.50;;;;;1.29;100.00;100135.22;6286354;20;2884774;-56
2023/01/26 04:35:53;;;;;;;;;69.33;52.33;;;;;1.38;100.00;100137.72;6281730;20;2876341;-54
2023/01/26 04:38:23;;;;;;;;;70.00;51.33;;;;;1.54;100.00;100135.69;6314417;20;2885820;-55
2023/01/26 04:40:53;;;;;;;;;68.67;51.00;;;;;1.45;100.00;100131.44;6312602;20;2897228;-55
2023/01/26 04:43:23;;;;;;;;;66.67;51.00;;;;;1.49;100.00;100130.47;6310226;20;2879668;-57
2023/01/26 04:46:08;;;;;;;;;72.33;55.00;;;;;1.48;100.00;100130.50;6317421;20;3636801;-54
2023/01/26 04:48:37;;;;;;;;;68.00;53.00;;;;;1.40;100.00;100128.00;6313590;20;2868064;-53
2023/01/26 04:51:18;;;;;;;;;67.00;48.67;;;;;1.55;100.00;100126.84;6279528;20;2887853;-54
2023/01/26 04:53:50;;;;;;;;;64.67;51.67;;;;;1.70;100.00;100125.69;6313922;20;2872256;-52
2023/01/26 04:56:23;;;;;;;;;63.00;50.00;;;;;1.56;100.00;100130.38;6317280;20;2868009;-54
2023/01/26 04:58:54;;;;;;;;;61.00;48.50;;;;;1.56;100.00;100133.03;6280711;20;2871240;-54
2023/01/26 05:01:23;;;;;;;;;60.50;48.50;;;;;1.61;100.00;100128.53;6283555;20;2851346;-54
2023/01/26 05:03:51;;;;;;;;;59.00;46.50;;;;;1.54;100.00;100141.84;6280269;20;2500334;-56
2023/01/26 05:06:19;;;;;;;;;63.00;51.00;;;;;1.63;100.00;100134.63;6278136;20;2500270;-52
2023/01/26 05:08:49;;;;;;;;;70.33;50.00;;;;;1.61;100.00;100131.19;6284317;20;3632829;-56
2023/01/26 05:11:19;;;;;;;;;74.00;55.33;;;;;1.74;100.00;100130.91;6317454;20;3645054;-54
2023/01/26 05:13:47;;;;;;;;;66.50;50.00;;;;;1.64;100.00;100133.75;6317766;20;2878612;-53
2023/01/26 05:16:17;;;;;;;;;60.00;49.00;;;;;1.78;100.00;100129.06;6284777;20;2865937;-52
2023/01/26 05:18:44;;;;;;;;;61.50;46.00;;;;;1.91;100.00;100135.00;6280335;20;2492094;-51
2023/01/26 05:21:14;;;;;;;;;65.33;51.67;;;;;1.88;100.00;100132.44;6281437;20;2875330;-55
2023/01/26 05:23:43;;;;;;;;;57.00;46.00;;;;;1.89;100.00;100129.72;6314833;20;2848286;-56
2023/01/26 05:26:11;;;;;;;;;62.00;49.00;;;;;1.53;100.00;100129.53;6280366;20;2493103;-55
2023/01/26 05:28:40;;;;;;;;;61.33;46.00;;;;;1.62;100.00;100127.63;6280732;20;3614990;-55
2023/01/26 05:31:09;;;;;;;;;62.00;48.00;;;;;1.81;100.00;100131.66;6312918;20;2858644;-57
2023/01/26 05:33:37;;;;;;;;;54.00;43.50;;;;;1.65;100.00;100132.84;6280667;20;2500346;-55
2023/01/26 05:36:07;;;;;;;;;59.50;45.50;;;;;1.53;100.00;100129.53;6282705;20;2864953;-55
2023/01/26 05:38:35;;;;;;;;;62.00;48.00;;;;;1.54;100.00;100125.97;6277265;20;2498361;-56
2023/01/26 05:41:07;;;;;;;;;59.00;47.50;;;;;1.67;100.00;100131.06;6278503;20;2863977;-53
2023/01/26 05:43:34;;;;;;;;;62.50;48.00;;;;;1.60;100.00;100130.28;6280381;20;2499403;-54
2023/01/26 05:46:03;;;;;;;;;50.00;41.00;;;;;1.59;100.00;100132.97;6284929;20;2853436;-54
2023/01/26 05:48:32;;;;;;;;;58.50;46.00;;;;;1.50;100.00;100134.88;6283141;20;2863825;-55
2023/01/26 05:51:01;;;;;;;;;49.00;42.50;;;;;1.56;100.00;100133.88;6278855;20;2853402;-54
2023/01/26 05:53:31;;;;;;;;;48.50;43.00;;;;;1.57;100.00;100126.81;6284147;20;2858686;-54
2023/01/26 05:56:00;;;;;;;;;31.67;29.00;;;;;1.54;100.00;100136.56;6282827;20;3581514;-53
2023/01/26 05:58:28;;;;;;;;;50.00;42.00;;;;;1.56;100.00;100135.66;6283414;20;2868012;-55
2023/01/26 06:00:57;;;;;;;;;57.00;45.50;;;;;1.44;100.00;100129.66;6278178;20;2847322;-55
2023/01/26 06:03:26;;;;;;;;;69.00;50.33;;;;;1.38;100.00;100129.78;6281974;20;3643007;-54
2023/01/26 06:05:55;;;;;;;;;49.50;33.50;;;;;1.74;100.00;100128.25;6312473;20;2863856;-51
2023/01/26 06:08:22;;;;;;;;;41.50;30.50;;;;;1.52;100.00;100122.47;6277777;20;2500389;-55
2023/01/26 06:10:57;;;;;;;;;48.00;35.67;;;;;1.45;100.00;100125.25;6281742;20;2873264;-56
2023/01/26 06:13:27;;;;;;;;;41.00;31.33;;;;;1.65;100.00;100130.19;6313344;20;2874304;-56
2023/01/26 06:15:58;;;;;;;;;39.50;34.00;;;;;1.59;100.00;100132.97;6309523;20;2862842;-56
2023/01/26 06:18:27;;;;;;;;;32.50;28.00;;;;;1.55;100.00;100124.19;6277732;20;2853406;-55
2023/01/26 06:20:59;;;;;;;;;46.00;26.00;;;;;1.47;100.00;100124.31;6277166;20;2498291;-56
2023/01/26 06:23:29;;;;;;;;;42.00;29.33;;;;;1.52;100.00;100125.13;6282110;20;2872202;-56
2023/01/26 06:26:01;;;;;;;;;29.00;24.00;;;;;1.28;100.00;100122.91;6315479;20;2847333;-58
2023/01/26 06:28:30;;;;;;;;;30.33;29.33;;;;;1.51;100.00;100127.81;6284947;20;3584663;-56
2023/01/26 06:31:06;;;;;;;;;39.50;31.50;;;;;1.40;100.00;100130.63;6278277;20;2849242;-58
2023/01/26 06:33:37;;;;;;;;;48.00;31.00;;;;;1.31;100.00;100122.84;6282620;20;2886807;-55
2023/01/26 06:36:11;;;;;;;;;39.50;30.00;;;;;1.34;100.00;100125.44;6281500;20;2862821;-57
2023/01/26 06:38:47;;;;;;;;;35.00;29.50;;;;;1.33;100.00;100121.06;6281989;20;2856542;-53
2023/01/26 06:41:17;;;;;;;;;30.50;28.00;;;;;1.28;100.00;100117.59;6276795;20;2842058;-57
2023/01/26 06:43:48;;;;;;;;;30.00;28.00;;;;;1.41;100.00;100115.63;6278596;20;2667090;-53
2023/01/26 06:46:18;;;;;;;;;36.00;30.00;;;;;1.39;100.00;100105.06;6311082;20;2500330;-55
2023/01/26 06:48:46;;;;;;;;;36.50;36.00;;;;;1.56;100.00;100122.44;6279045;20;2500290;-58
2023/01/26 06:51:19;;;;;;;;;35.00;28.00;;;;;1.25;100.00;100121.19;6274679;20;2500313;-53
2023/01/26 06:53:55;;;;;;;;;33.50;32.00;;;;;1.34;100.00;100114.84;6279944;20;2855534;-53
2023/01/26 06:56:26;;;;;;;;;37.50;33.00;;;;;1.33;100.00;100110.47;6279399;20;2500402;-55
2023/01/26 06:58:54;;;;;;;;;37.00;31.00;;;;;1.41;100.00;100115.63;6278007;20;2500346;-54
2023/01/26 07:01:26;;;;;;;;;38.00;30.50;;;;;1.32;100.00;100121.97;6281832;20;2852382;-56
2023/01/26 07:03:55;;;;;;;;;45.50;35.50;;;;;1.15;100.00;100116.06;6282806;20;2867005;-55
2023/01/26 07:06:23;;;;;;;;;38.50;29.00;;;;;1.24;100.00;100116.81;6283492;20;2861724;-56
2023/01/26 07:08:52;;;;;;;;;43.00;34.50;;;;;1.26;100.00;100115.00;6281937;20;2865902;-54
2023/01/26 07:11:20;;;;;;;;;50.00;36.00;;;;;1.21;100.00;100119.50;6277523;20;2500290;-55
2023/01/26 07:13:49;;;;;;;;;37.50;30.50;;;;;1.25;100.00;100113.25;6282750;20;2851314;-58
2023/01/26 07:16:18;;;;;;;;;37.50;31.00;;;;;1.21;100.00;100113.31;6282950;20;2851350;-56
2023/01/26 07:18:47;;;;;;;;;34.50;32.00;;;;;1.34;100.00;100112.22;6278796;20;2850305;-56
2023/01/26 07:21:18;;;;;;;;;43.50;29.50;;;;;1.23;100.00;100109.75;6284105;20;2880517;-55
2023/01/26 07:23:47;;;;;;;;;39.50;33.00;;;;;1.23;100.00;100108.88;6279763;20;2845333;-55
2023/01/26 07:26:16;;;;;;;;;43.00;35.50;;;;;1.15;100.00;100105.50;6281616;20;2847244;-57
2023/01/26 07:28:44;;;;;;;;;34.50;32.00;;;;;1.26;100.00;100103.53;6276932;20;2500293;-58
2023/01/26 07:31:12;;;;;;;;;43.00;37.00;;;;;1.32;100.00;100106.09;6273664;20;2500275;-54
2023/01/26 07:33:41;;;;;;;;;41.00;35.00;;;;;1.44;100.00;100097.91;6281793;20;2861723;-56
2023/01/26 07:36:10;;;;;;;;;47.00;40.00;;;;;1.42;100.00;100101.50;6281941;20;2871153;-55
2023/01/26 07:38:40;;;;;;;;;42.33;36.33;;;;;1.49;100.00;100096.06;6281793;20;2867992;-56
2023/01/26 07:41:11;;;;;;;;;48.33;39.67;;;;;1.66;100.00;100095.78;6310398;20;3621085;-57
2023/01/26 07:43:41;;;;;;;;;46.33;37.33;;;;;1.62;100.00;100098.50;6311389;20;3625245;-57
2023/01/26 07:46:11;;;;;;;;;39.50;32.00;;;;;1.84;100.00;100094.53;6313275;20;2865915;-56
2023/01/26 07:48:40;;;;;;;;;38.00;29.00;;;;;1.83;100.00;100082.22;6282288;20;2853513;-58
2023/01/26 07:51:09;;;;;;;;;40.50;33.50;;;;;1.64;100.00;100091.41;6278145;20;2858645;-57
2023/01/26 07:53:38;;;;;;;;;34.00;31.00;;;;;1.67;100.00;100094.00;6283590;20;2500371;-56
2023/01/26 07:56:14;;;;;;;;;37.50;35.00;;;;;1.60;100.00;100090.56;6286996;20;2861815;-56
2023/01/26 07:58:50;;;;;;;;;51.67;38.00;;;;;1.63;100.00;100090.50;6281587;20;2880559;-55
2023/01/26 08:01:20;;;;;;;;;45.67;35.67;;;;;1.65;100.00;100095.78;6319134;20;2862897;-57
2023/01/26 08:03:52;;;;;;;;;35.00;29.00;;;;;1.51;100.00;100098.69;6315667;20;2858658;-57
2023/01/26 08:06:21;;;;;;;;;38.50;32.50;;;;;1.53;100.00;100103.06;6284191;20;2855481;-58
2023/01/26 08:08:50;;;;;;;;;35.50;29.00;;;;;1.56;100.00;100093.34;6280497;20;2500415;-52
2023/01/26 08:11:21;;;;;;;;;39.50;32.00;;;;;1.62;100.00;100101.16;6285261;20;2500382;-56
2023/01/26 08:13:50;;;;;;;;;38.00;34.50;;;;;1.54;100.00;100104.81;6283682;20;2860722;-58
2023/01/26 08:16:19;;;;;;;;;37.50;32.00;;;;;1.46;100.00;100096.13;6285065;20;2856541;-58
2023/01/26 08:18:49;;;;;;;;;58.67;43.00;;;;;1.56;100.00;100095.97;6286523;20;2880806;-54
2023/01/26 08:21:19;;;;;;;;;33.00;33.00;;;;;1.42;100.00;100097.09;6315656;20;2500300;-56
2023/01/26 08:23:50;;;;;;;;;42.33;36.33;;;;;1.40;100.00;100090.09;6286273;20;2872161;-51
2023/01/26 08:26:20;;;;;;;;;53.50;42.00;;;;;1.42;100.00;100091.81;6316956;20;2851315;-54
2023/01/26 08:28:51;;;;;;;;;43.00;32.00;;;;;1.31;100.00;100091.09;6284709;20;2860776;-56
2023/01/26 08:31:21;;;;;;;;;45.67;35.00;;;;;1.38;100.00;100092.75;6285350;20;3633607;-54
2023/01/26 08:33:53;;;;;;;;;50.00;36.33;;;;;1.57;100.00;100095.06;6315496;20;3628397;-55
2023/01/26 08:36:23;;;;;;;;;48.67;39.00;;;;;1.70;100.00;100099.22;6317256;20;2876415;-53
2023/01/26 08:38:53;;;;;;;;;53.33;41.67;;;;;1.43;100.00;100096.19;6315784;20;2859674;-55
2023/01/26 08:41:24;;;;;;;;;135.00;109.00;;;;;1.49;100.00;100098.72;6314448;20;3722197;-56
2023/01/26 08:43:58;;;;;;;;;127.33;100.67;;;;;1.44;100.00;100091.75;6317424;20;3697227;-57
2023/01/26 08:46:27;;;;;;;;;93.67;68.33;;;;;1.30;100.00;100090.22;6285392;20;3656549;-57
2023/01/26 08:48:57;;;;;;;;;78.00;60.33;;;;;1.57;100.00;100093.28;6284406;20;3641973;-56
2023/01/26 08:51:28;;;;;;;;;67.67;52.67;;;;;1.79;100.00;100092.88;6316429;20;2874275;-53
2023/01/26 08:53:58;;;;;;;;;97.33;77.00;;;;;1.88;100.00;100095.38;6315144;20;3672238;-55
2023/01/26 08:56:29;;;;;;;;;355.00;293.25;;;;;1.89;100.00;100095.31;6316269;20;4511736;-54
2023/01/26 08:58:59;;;;;;;;;156.75;112.00;;;;;2.38;100.00;100096.97;6284266;20;4491965;-55
2023/01/26 09:01:29;;;;;;;;;104.75;90.50;;;;;2.16;100.00;100099.22;6287137;20;4433686;-56
2023/01/26 09:03:59;;;;;;;;;63.50;50.50;;;;;1.91;100.00;100096.16;6314025;20;2877419;-56
2023/01/26 09:06:31;;;;;;;;;131.25;108.25;;;;;2.24;100.00;100099.06;6283495;20;4493106;-58
2023/01/26 09:09:00;;;;;;;;;63.00;51.00;;;;;1.88;100.00;100101.53;6282760;20;2866929;-56
2023/01/26 09:11:31;;;;;;;;;192.00;151.75;;;;;2.42;100.00;100098.66;6286579;20;3723173;-55
2023/01/26 09:13:59;;;;;;;;;156.00;123.00;;;;;2.46;100.00;100101.22;6279639;20;1952410;-54
2023/01/26 09:16:28;;;;;;;;;92.33;68.33;;;;;2.23;100.00;100094.63;6285363;20;3656536;-58
2023/01/26 09:18:58;;;;;;;;;79.00;59.67;;;;;2.46;100.00;100093.28;6283253;20;3646199;-51
2023/01/26 09:21:28;;;;;;;;;82.33;61.33;;;;;2.53;100.00;100097.56;6312955;20;3634692;-55
2023/01/26 09:23:56;;;;;;;;;78.00;57.00;;;;;2.31;100.00;100098.00;6316960;20;2772174;-54
2023/01/26 09:26:26;;;;;;;;;56.33;44.00;;;;;2.42;100.00;100090.72;6281829;20;3604517;-52
2023/01/26 09:28:55;;;;;;;;;62.50;51.50;;;;;2.55;100.00;100091.28;6314060;20;2869442;-55
2023/01/26 09:31:24;;;;;;;;;83.00;61.00;;;;;2.42;100.00;100082.75;6284565;20;3652361;-54
2023/01/26 09:33:54;;;;;;;;;79.33;57.67;;;;;2.24;100.00;100091.09;6316619;20;3651390;-54
2023/01/26 09:36:23;;;;;;;;;71.00;56.00;;;;;2.16;100.00;100087.75;6315206;20;2879495;-54
2023/01/26 09:38:52;;;;;;;;;70.67;51.33;;;;;2.09;100.00;100084.34;6284664;20;2873193;-55
2023/01/26 09:42:06;;;;;;;;;71.67;55.67;;;;;2.43;100.00;100078.31;6316055;20;3644081;-55
2023/01/26 09:44:59;;;;;;;;;59.50;41.50;;;;;2.17;100.00;100085.03;6314003;20;2872683;-57
2023/01/26 09:48:00;;;;;;;;;66.50;49.00;;;;;2.08;100.00;100079.97;6278052;20;2494068;-53
2023/01/26 09:50:53;;;;;;;;;71.33;53.67;;;;;2.51;100.00;100080.81;6282940;20;2883651;-54
2023/01/26 09:53:58;;;;;;;;;62.50;49.00;;;;;2.55;100.00;100074.50;6312637;20;2862788;-55
2023/01/26 09:56:31;;;;;;;;;123.67;99.00;;;;;2.31;100.00;100071.50;6274560;20;3707580;-56
2023/01/26 09:59:42;;;;;;;;;104.00;97.67;;;;;2.39;100.00;100072.19;6279383;20;3660723;-56
2023/01/26 10:02:43;;;;;;;;;114.25;88.00;;;;;2.30;100.00;100063.59;6283712;20;3697187;-55
2023/01/26 10:05:46;;;;;;;;;64.00;50.00;;;;;2.55;100.00;100056.81;6314837;20;2877364;-56
2023/01/26 10:08:25;;;;;;;;;72.33;55.33;;;;;2.52;100.00;100053.38;6279279;20;2891017;-56
2023/01/26 10:12:06;;;;;;;;;189.25;156.25;;;;;2.77;100.00;100046.63;6311034;20;4490932;-55
2023/01/26 10:15:02;;;;;;;;;77.33;59.33;;;;;2.47;100.00;100042.88;6274015;20;2879640;-54
2023/01/26 10:17:41;;;;;;;;;101.00;77.75;;;;;2.42;100.00;100045.66;6312179;20;3706493;-54
2023/01/26 10:20:48;;;;;;;;;116.33;99.00;;;;;2.58;100.00;100042.63;6310692;20;3697130;-53
2023/01/26 10:23:31;;;;;;;;;223.00;175.00;;;;;2.89;100.00;100040.13;6278755;20;3710703;-58
2023/01/26 10:26:33;;;;;;;;;182.50;141.00;;;;;2.84;100.00;100040.25;6280896;20;4474175;-57
2023/01/26 10:29:03;;;;;;;;;111.33;83.33;;;;;2.30;100.00;100026.50;6280070;20;3696117;-51
2023/01/26 10:31:33;;;;;;;;;68.00;51.50;;;;;2.30;100.00;100029.16;6276742;20;2500270;-56
2023/01/26 10:34:26;;;;;;;;;75.00;57.00;;;;;2.63;100.00;100019.53;6282088;20;3633602;-51
2023/01/26 10:37:22;;;;;;;;;79.33;57.33;;;;;2.73;100.00;100022.84;6313969;20;3646113;-53
2023/01/26 10:40:08;;;;;;;;;63.50;50.50;;;;;2.69;100.00;100016.75;6313192;20;2870079;-54
2023/01/26 10:42:38;;;;;;;;;67.00;53.00;;;;;2.70;100.00;100012.31;6279290;20;2872182;-53
2023/01/26 10:45:31;;;;;;;;;74.67;54.33;;;;;2.65;100.00;100015.09;6279897;20;3643002;-54
2023/01/26 10:48:05;;;;;;;;;69.00;53.50;;;;;2.42;100.00;100011.22;6314111;20;2877411;-53
2023/01/26 10:50:35;;;;;;;;;69.00;51.33;;;;;2.56;100.00;100007.38;6280737;20;3641941;-55
2023/01/26 10:53:14;;;;;;;;;71.00;53.33;;;;;2.57;100.00;100001.16;6311520;20;2885960;-51
2023/01/26 10:56:02;;;;;;;;;73.67;51.33;;;;;2.40;100.00;99997.13;6312901;20;3630463;-55
2023/01/26 10:58:56;;;;;;;;;65.33;51.33;;;;;2.29;100.00;99993.84;6312974;20;3615868;-54
2023/01/26 11:01:26;;;;;;;;;87.33;64.00;;;;;2.62;100.00;99989.50;6309501;20;3654437;-53
2023/01/26 11:04:13;;;;;;;;;72.00;55.67;;;;;2.72;100.00;99973.41;6312772;20;2890101;-54
2023/01/26 11:06:43;;;;;;;;;76.67;55.67;;;;;2.94;100.00;99987.84;6312957;20;3643981;-56
2023/01/26 11:09:30;;;;;;;;;72.33;49.67;;;;;3.08;100.00;99985.72;6311929;20;3641955;-56
2023/01/26 11:12:04;;;;;;;;;61.00;48.00;;;;;2.95;100.00;99988.72;6311192;20;2808648;-54
2023/01/26 11:14:34;;;;;;;;;72.67;56.33;;;;;2.98;100.00;99973.59;6282353;20;3660664;-55
2023/01/26 11:17:25;;;;;;;;;70.67;53.33;;;;;3.01;100.00;99970.00;6309987;20;3624194;-51
2023/01/26 11:20:45;;;;;;;;;66.67;48.33;;;;;2.98;100.00;99973.59;6309266;20;2886851;-53
2023/01/26 11:23:54;;;;;;;;;72.67;54.67;;;;;3.00;100.00;99966.50;6309346;20;3636805;-54
2023/01/26 11:27:17;;;;;;;;;70.00;49.33;;;;;3.07;100.00;99954.78;6316355;20;3644100;-56
2023/01/26 11:30:31;;;;;;;;;77.33;56.00;;;;;3.02;100.00;99962.00;6319168;20;3648172;-54
2023/01/26 11:34:05;;;;;;;;;71.00;52.00;;;;;2.88;99.89;99960.63;6316441;20;3648175;-54
2023/01/26 11:37:49;;;;;;;;;78.67;58.33;;;;;2.86;100.00;99953.56;6312168;20;3644017;-56
2023/01/26 11:41:11;;;;;;;;;64.00;51.33;;;;;3.12;99.65;99949.38;6313172;20;2874352;-54
2023/01/26 11:43:52;;;;;;;;;68.33;49.00;;;;;3.24;99.99;99949.03;6314625;20;2877419;-54
2023/01/26 11:47:00;;;;;;;;;68.33;51.00;;;;;3.16;99.15;99950.13;6317481;20;3638833;-55
2023/01/26 11:50:17;;;;;;;;;77.33;59.00;;;;;3.21;99.49;99933.22;6313675;20;3646225;-55
2023/01/26 11:53:33;;;;;;;;;55.00;45.00;;;;;2.98;98.76;99928.53;6318445;20;2858626;-53
2023/01/26 11:56:42;;;;;;;;;69.67;50.33;;;;;2.97;99.69;99917.94;6284224;20;3631507;-54
2023/01/26 11:59:30;;;;;;;;;42.00;38.00;;;;;2.96;100.00;99926.81;6317100;20;2865912;-55
2023/01/26 12:02:31;;;;;;;;;72.50;57.00;;;;;2.70;100.00;99919.53;6284268;20;2876349;-56
2023/01/26 12:05:51;;;;;;;;;76.33;57.33;;;;;2.89;100.00;99919.94;6287113;20;3635668;-55
2023/01/26 12:08:28;;;;;;;;;68.67;49.67;;;;;3.18;99.63;99917.34;6319142;20;3638502;-52
2023/01/26 12:11:38;;;;;;;;;68.00;52.00;;;;;2.83;99.88;99911.22;6316865;20;3643102;-55
2023/01/26 12:14:24;;;;;;;;;72.25;52.25;;;;;3.05;100.00;99908.88;6316382;20;3642059;-54
2023/01/26 12:17:47;;;;;;;;;57.00;40.67;;;;;2.75;100.00;99902.59;6310023;20;2866070;-54
2023/01/26 12:20:59;;;;;;;;;64.67;51.00;;;;;2.88;100.00;99894.34;6308010;20;2875377;-53